sensor_id;sensor_type;location;lat;lon;timestamp;P1;durP1;ratioP1;P2;durP2;ratioP2
1879;SDS011;49285;49.002;8.390;2023-02-01T00:00:18;9.63;;;5.93;;
1879;SDS011;49285;49.002;8.390;2023-02-01T00:02:44;8.30;;;5.90;;
1879;SDS011;49285;49.002;8.390;2023-02-01T00:05:10;6.87;;;6.03;;
1879;SDS011;49285;49.002;8.390;2023-02-01T00:07:36;11.40;;;6.90;;
1879;SDS011;49285;49.002;8.390;2023-02-01T00:10:03;12.50;;;7.20;;
1879;SDS011;49285;49.002;8.390;2023-02-01T00:12:30;10.80;;;7.20;;
1879;SDS011;49285;49.002;8.390;2023-02-01T00:14:56;7.87;;;6.07;;
1879;SDS011;49285;49.002;8.390;2023-02-01T00:17:21;11.00;;;6.70;;
1879;SDS011;49285;49.002;8.390;2023-02-01T00:19:47;10.20;;;7.30;;
1879;SDS011;49285;49.002;8.390;2023-02-01T00:22:12;8.77;;;6.10;;
1879;SDS011;49285;49.002;8.390;2023-02-01T00:24:38;8.00;;;6.30;;
1879;SDS011;49285;49.002;8.390;2023-02-01T00:27:03;8.40;;;5.93;;
1879;SDS011;49285;49.002;8.390;2023-02-01T00:29:29;8.27;;;6.60;;
1879;SDS011;49285;49.002;8.390;2023-02-01T00:31:54;8.47;;;6.10;;
1879;SDS011;49285;49.002;8.390;2023-02-01T00:34:20;12.73;;;6.73;;
1879;SDS011;49285;49.002;8.390;2023-02-01T00:36:46;10.40;;;5.40;;
1879;SDS011;49285;49.002;8.390;2023-02-01T00:39:12;6.87;;;5.33;;
1879;SDS011;49285;49.002;8.390;2023-02-01T00:41:38;10.47;;;5.33;;
1879;SDS011;49285;49.002;8.390;2023-02-01T00:44:03;6.37;;;4.80;;
1879;SDS011;49285;49.002;8.390;2023-02-01T00:46:29;7.13;;;4.90;;
1879;SDS011;49285;49.002;8.390;2023-02-01T00:48:55;8.07;;;5.50;;
1879;SDS011;49285;49.002;8.390;2023-02-01T00:51:22;7.33;;;5.50;;
1879;SDS011;49285;49.002;8.390;2023-02-01T00:53:49;7.40;;;5.10;;
1879;SDS011;49285;49.002;8.390;2023-02-01T00:56:15;6.33;;;5.03;;
1879;SDS011;49285;49.002;8.390;2023-02-01T00:58:41;7.30;;;4.90;;
1879;SDS011;49285;49.002;8.390;2023-02-01T01:01:15;6.20;;;4.60;;
1879;SDS011;49285;49.002;8.390;2023-02-01T01:03:47;7.30;;;5.57;;
1879;SDS011;49285;49.002;8.390;2023-02-01T01:06:24;7.30;;;4.93;;
1879;SDS011;49285;49.002;8.390;2023-02-01T01:08:53;9.70;;;5.50;;
1879;SDS011;49285;49.002;8.390;2023-02-01T01:11:21;8.13;;;5.00;;
1879;SDS011;49285;49.002;8.390;2023-02-01T01:13:49;8.40;;;4.80;;
1879;SDS011;49285;49.002;8.390;2023-02-01T01:16:16;7.70;;;5.00;;
1879;SDS011;49285;49.002;8.390;2023-02-01T01:18:42;9.43;;;5.07;;
1879;SDS011;49285;49.002;8.390;2023-02-01T01:21:09;7.60;;;4.87;;
1879;SDS011;49285;49.002;8.390;2023-02-01T01:23:36;6.60;;;4.73;;
1879;SDS011;49285;49.002;8.390;2023-02-01T01:26:06;7.00;;;4.70;;
1879;SDS011;49285;49.002;8.390;2023-02-01T01:28:34;6.93;;;4.57;;
1879;SDS011;49285;49.002;8.390;2023-02-01T01:30:59;7.07;;;4.80;;
1879;SDS011;49285;49.002;8.390;2023-02-01T01:33:25;5.23;;;4.00;;
1879;SDS011;49285;49.002;8.390;2023-02-01T01:35:51;6.20;;;4.53;;
1879;SDS011;49285;49.002;8.390;2023-02-01T01:38:16;5.70;;;4.20;;
1879;SDS011;49285;49.002;8.390;2023-02-01T01:40:45;6.90;;;4.40;;
1879;SDS011;49285;49.002;8.390;2023-02-01T01:43:12;6.90;;;4.80;;
1879;SDS011;49285;49.002;8.390;2023-02-01T01:45:39;6.33;;;4.13;;
1879;SDS011;49285;49.002;8.390;2023-02-01T01:50:36;5.20;;;4.20;;
1879;SDS011;49285;49.002;8.390;2023-02-01T01:53:20;6.07;;;4.53;;
1879;SDS011;49285;49.002;8.390;2023-02-01T01:55:52;9.07;;;4.77;;
1879;SDS011;49285;49.002;8.390;2023-02-01T01:58:22;5.50;;;4.00;;
1879;SDS011;49285;49.002;8.390;2023-02-01T02:00:51;6.73;;;4.33;;
1879;SDS011;49285;49.002;8.390;2023-02-01T02:03:18;6.83;;;4.53;;
1879;SDS011;49285;49.002;8.390;2023-02-01T02:05:47;6.80;;;4.93;;
1879;SDS011;49285;49.002;8.390;2023-02-01T02:08:15;8.13;;;4.87;;
1879;SDS011;49285;49.002;8.390;2023-02-01T02:10:42;6.47;;;5.00;;
1879;SDS011;49285;49.002;8.390;2023-02-01T02:13:27;5.60;;;4.30;;
1879;SDS011;49285;49.002;8.390;2023-02-01T02:16:04;8.83;;;5.03;;
1879;SDS011;49285;49.002;8.390;2023-02-01T02:27:09;5.17;;;4.63;;
1879;SDS011;49285;49.002;8.390;2023-02-01T02:32:53;7.33;;;5.17;;
1879;SDS011;49285;49.002;8.390;2023-02-01T02:35:50;6.27;;;4.70;;
1879;SDS011;49285;49.002;8.390;2023-02-01T02:38:32;6.77;;;4.50;;
1879;SDS011;49285;49.002;8.390;2023-02-01T02:44:12;5.57;;;4.20;;
1879;SDS011;49285;49.002;8.390;2023-02-01T02:47:04;5.23;;;4.70;;
1879;SDS011;49285;49.002;8.390;2023-02-01T02:49:52;5.37;;;4.40;;
1879;SDS011;49285;49.002;8.390;2023-02-01T02:52:39;5.50;;;4.30;;
1879;SDS011;49285;49.002;8.390;2023-02-01T02:55:29;6.00;;;4.53;;
1879;SDS011;49285;49.002;8.390;2023-02-01T02:57:58;6.10;;;4.77;;
1879;SDS011;49285;49.002;8.390;2023-02-01T03:00:43;7.23;;;4.17;;
1879;SDS011;49285;49.002;8.390;2023-02-01T03:03:28;5.80;;;4.33;;
1879;SDS011;49285;49.002;8.390;2023-02-01T03:06:16;5.80;;;4.63;;
1879;SDS011;49285;49.002;8.390;2023-02-01T03:08:43;5.17;;;4.07;;
1879;SDS011;49285;49.002;8.390;2023-02-01T03:11:11;4.20;;;3.70;;
1879;SDS011;49285;49.002;8.390;2023-02-01T03:13:49;5.77;;;4.40;;
1879;SDS011;49285;49.002;8.390;2023-02-01T03:16:22;5.63;;;4.80;;
1879;SDS011;49285;49.002;8.390;2023-02-01T03:24:00;6.10;;;4.50;;
1879;SDS011;49285;49.002;8.390;2023-02-01T03:26:30;4.57;;;3.93;;
1879;SDS011;49285;49.002;8.390;2023-02-01T03:29:00;5.87;;;4.67;;
1879;SDS011;49285;49.002;8.390;2023-02-01T03:31:33;7.40;;;4.50;;
1879;SDS011;49285;49.002;8.390;2023-02-01T03:33:58;5.77;;;4.30;;
1879;SDS011;49285;49.002;8.390;2023-02-01T03:36:31;6.63;;;4.90;;
1879;SDS011;49285;49.002;8.390;2023-02-01T03:44:22;6.60;;;4.80;;
1879;SDS011;49285;49.002;8.390;2023-02-01T03:49:26;5.83;;;4.50;;
1879;SDS011;49285;49.002;8.390;2023-02-01T03:51:54;6.20;;;4.57;;
1879;SDS011;49285;49.002;8.390;2023-02-01T03:54:23;5.60;;;4.40;;
1879;SDS011;49285;49.002;8.390;2023-02-01T03:56:52;8.43;;;5.17;;
1879;SDS011;49285;49.002;8.390;2023-02-01T03:59:20;5.90;;;4.60;;
1879;SDS011;49285;49.002;8.390;2023-02-01T04:01:45;5.67;;;4.33;;
1879;SDS011;49285;49.002;8.390;2023-02-01T04:04:11;5.60;;;4.43;;
1879;SDS011;49285;49.002;8.390;2023-02-01T04:06:44;7.90;;;4.63;;
1879;SDS011;49285;49.002;8.390;2023-02-01T04:09:19;6.20;;;3.93;;
1879;SDS011;49285;49.002;8.390;2023-02-01T04:11:44;4.43;;;3.63;;
1879;SDS011;49285;49.002;8.390;2023-02-01T04:14:10;5.50;;;4.20;;
1879;SDS011;49285;49.002;8.390;2023-02-01T04:16:36;5.43;;;4.60;;
1879;SDS011;49285;49.002;8.390;2023-02-01T04:19:01;7.30;;;4.80;;
1879;SDS011;49285;49.002;8.390;2023-02-01T04:21:27;6.63;;;4.57;;
1879;SDS011;49285;49.002;8.390;2023-02-01T04:23:53;6.47;;;5.23;;
1879;SDS011;49285;49.002;8.390;2023-02-01T04:26:18;10.80;;;4.37;;
1879;SDS011;49285;49.002;8.390;2023-02-01T04:28:44;6.30;;;4.67;;
1879;SDS011;49285;49.002;8.390;2023-02-01T04:31:16;5.43;;;4.70;;
1879;SDS011;49285;49.002;8.390;2023-02-01T04:33:42;6.07;;;4.43;;
1879;SDS011;49285;49.002;8.390;2023-02-01T04:36:08;8.50;;;4.80;;
1879;SDS011;49285;49.002;8.390;2023-02-01T04:38:34;5.87;;;4.10;;
1879;SDS011;49285;49.002;8.390;2023-02-01T04:41:00;6.83;;;4.20;;
1879;SDS011;49285;49.002;8.390;2023-02-01T04:43:26;7.13;;;5.03;;
1879;SDS011;49285;49.002;8.390;2023-02-01T04:45:52;5.70;;;4.53;;
1879;SDS011;49285;49.002;8.390;2023-02-01T04:48:19;5.90;;;4.20;;
1879;SDS011;49285;49.002;8.390;2023-02-01T04:50:45;6.63;;;5.00;;
1879;SDS011;49285;49.002;8.390;2023-02-01T04:53:12;6.17;;;4.70;;
1879;SDS011;49285;49.002;8.390;2023-02-01T04:55:39;6.63;;;4.60;;
1879;SDS011;49285;49.002;8.390;2023-02-01T04:58:05;6.83;;;3.70;;
1879;SDS011;49285;49.002;8.390;2023-02-01T05:00:31;5.93;;;4.03;;
1879;SDS011;49285;49.002;8.390;2023-02-01T05:02:56;9.37;;;4.30;;
1879;SDS011;49285;49.002;8.390;2023-02-01T05:05:22;5.20;;;4.23;;
1879;SDS011;49285;49.002;8.390;2023-02-01T05:07:47;5.87;;;4.63;;
1879;SDS011;49285;49.002;8.390;2023-02-01T05:10:13;4.20;;;3.80;;
1879;SDS011;49285;49.002;8.390;2023-02-01T05:12:38;6.43;;;4.27;;
1879;SDS011;49285;49.002;8.390;2023-02-01T05:15:22;8.10;;;4.43;;
1879;SDS011;49285;49.002;8.390;2023-02-01T05:17:48;5.50;;;4.33;;
1879;SDS011;49285;49.002;8.390;2023-02-01T05:20:14;6.40;;;4.57;;
1879;SDS011;49285;49.002;8.390;2023-02-01T05:22:40;6.07;;;4.63;;
1879;SDS011;49285;49.002;8.390;2023-02-01T05:25:06;6.57;;;4.77;;
1879;SDS011;49285;49.002;8.390;2023-02-01T05:27:32;5.80;;;4.40;;
1879;SDS011;49285;49.002;8.390;2023-02-01T05:29:58;7.07;;;4.80;;
1879;SDS011;49285;49.002;8.390;2023-02-01T05:32:23;6.93;;;5.17;;
1879;SDS011;49285;49.002;8.390;2023-02-01T05:34:49;7.27;;;4.80;;
1879;SDS011;49285;49.002;8.390;2023-02-01T05:37:14;6.90;;;4.70;;
1879;SDS011;49285;49.002;8.390;2023-02-01T05:39:40;6.87;;;4.07;;
1879;SDS011;49285;49.002;8.390;2023-02-01T05:42:05;7.37;;;4.87;;
1879;SDS011;49285;49.002;8.390;2023-02-01T05:44:31;6.93;;;4.33;;
1879;SDS011;49285;49.002;8.390;2023-02-01T05:46:56;5.47;;;4.10;;
1879;SDS011;49285;49.002;8.390;2023-02-01T05:49:22;5.30;;;4.50;;
1879;SDS011;49285;49.002;8.390;2023-02-01T05:51:47;6.43;;;4.23;;
1879;SDS011;49285;49.002;8.390;2023-02-01T05:54:13;5.07;;;3.90;;
1879;SDS011;49285;49.002;8.390;2023-02-01T05:56:38;6.20;;;4.20;;
1879;SDS011;49285;49.002;8.390;2023-02-01T05:59:05;6.23;;;4.00;;
1879;SDS011;49285;49.002;8.390;2023-02-01T06:01:31;7.47;;;4.70;;
1879;SDS011;49285;49.002;8.390;2023-02-01T06:03:56;6.37;;;4.40;;
1879;SDS011;49285;49.002;8.390;2023-02-01T06:06:22;9.13;;;4.30;;
1879;SDS011;49285;49.002;8.390;2023-02-01T06:08:48;6.50;;;4.43;;
1879;SDS011;49285;49.002;8.390;2023-02-01T06:11:13;7.87;;;4.83;;
1879;SDS011;49285;49.002;8.390;2023-02-01T06:13:39;6.60;;;4.07;;
1879;SDS011;49285;49.002;8.390;2023-02-01T06:16:04;6.00;;;4.67;;
1879;SDS011;49285;49.002;8.390;2023-02-01T06:18:32;4.67;;;3.87;;
1879;SDS011;49285;49.002;8.390;2023-02-01T06:20:58;6.63;;;4.53;;
1879;SDS011;49285;49.002;8.390;2023-02-01T06:23:25;4.93;;;4.40;;
1879;SDS011;49285;49.002;8.390;2023-02-01T06:25:52;4.60;;;3.93;;
1879;SDS011;49285;49.002;8.390;2023-02-01T06:28:24;7.27;;;4.70;;
1879;SDS011;49285;49.002;8.390;2023-02-01T06:30:50;5.83;;;4.63;;
1879;SDS011;49285;49.002;8.390;2023-02-01T06:33:15;5.77;;;4.23;;
1879;SDS011;49285;49.002;8.390;2023-02-01T06:35:42;5.67;;;3.87;;
1879;SDS011;49285;49.002;8.390;2023-02-01T06:38:09;7.67;;;4.10;;
1879;SDS011;49285;49.002;8.390;2023-02-01T06:40:36;7.13;;;3.93;;
1879;SDS011;49285;49.002;8.390;2023-02-01T06:43:02;6.80;;;4.53;;
1879;SDS011;49285;49.002;8.390;2023-02-01T06:45:27;5.73;;;4.70;;
1879;SDS011;49285;49.002;8.390;2023-02-01T06:47:53;10.03;;;5.27;;
1879;SDS011;49285;49.002;8.390;2023-02-01T06:50:18;6.47;;;4.40;;
1879;SDS011;49285;49.002;8.390;2023-02-01T06:52:45;6.50;;;4.17;;
1879;SDS011;49285;49.002;8.390;2023-02-01T06:55:10;7.33;;;4.20;;
1879;SDS011;49285;49.002;8.390;2023-02-01T06:57:36;7.13;;;4.60;;
1879;SDS011;49285;49.002;8.390;2023-02-01T07:00:03;4.93;;;3.60;;
1879;SDS011;49285;49.002;8.390;2023-02-01T07:02:29;5.00;;;3.70;;
1879;SDS011;49285;49.002;8.390;2023-02-01T07:04:55;8.10;;;4.40;;
1879;SDS011;49285;49.002;8.390;2023-02-01T07:07:21;5.53;;;3.20;;
1879;SDS011;49285;49.002;8.390;2023-02-01T07:09:47;6.03;;;4.80;;
1879;SDS011;49285;49.002;8.390;2023-02-01T07:12:14;6.33;;;4.23;;
1879;SDS011;49285;49.002;8.390;2023-02-01T07:14:40;8.30;;;5.40;;
1879;SDS011;49285;49.002;8.390;2023-02-01T07:17:05;8.13;;;4.77;;
1879;SDS011;49285;49.002;8.390;2023-02-01T07:19:31;8.93;;;5.23;;
1879;SDS011;49285;49.002;8.390;2023-02-01T07:21:56;10.13;;;5.10;;
1879;SDS011;49285;49.002;8.390;2023-02-01T07:24:22;6.03;;;5.10;;
1879;SDS011;49285;49.002;8.390;2023-02-01T07:26:47;6.77;;;4.60;;
1879;SDS011;49285;49.002;8.390;2023-02-01T07:29:13;6.60;;;4.70;;
1879;SDS011;49285;49.002;8.390;2023-02-01T07:31:39;7.27;;;4.17;;
1879;SDS011;49285;49.002;8.390;2023-02-01T07:34:05;8.47;;;5.03;;
1879;SDS011;49285;49.002;8.390;2023-02-01T07:36:30;13.57;;;5.40;;
1879;SDS011;49285;49.002;8.390;2023-02-01T07:38:56;9.17;;;5.03;;
1879;SDS011;49285;49.002;8.390;2023-02-01T07:41:22;14.53;;;5.03;;
1879;SDS011;49285;49.002;8.390;2023-02-01T07:43:48;10.17;;;5.07;;
1879;SDS011;49285;49.002;8.390;2023-02-01T07:46:15;6.27;;;4.80;;
1879;SDS011;49285;49.002;8.390;2023-02-01T07:48:41;8.37;;;4.77;;
1879;SDS011;49285;49.002;8.390;2023-02-01T07:51:13;11.30;;;5.63;;
1879;SDS011;49285;49.002;8.390;2023-02-01T07:53:40;8.20;;;4.80;;
1879;SDS011;49285;49.002;8.390;2023-02-01T07:56:11;6.00;;;4.70;;
1879;SDS011;49285;49.002;8.390;2023-02-01T07:58:47;7.07;;;4.80;;
1879;SDS011;49285;49.002;8.390;2023-02-01T08:01:14;5.70;;;4.50;;
1879;SDS011;49285;49.002;8.390;2023-02-01T08:03:50;5.97;;;4.60;;
1879;SDS011;49285;49.002;8.390;2023-02-01T08:06:18;7.27;;;4.07;;
1879;SDS011;49285;49.002;8.390;2023-02-01T08:08:47;8.20;;;3.90;;
1879;SDS011;49285;49.002;8.390;2023-02-01T08:11:14;5.57;;;4.23;;
1879;SDS011;49285;49.002;8.390;2023-02-01T08:13:41;8.17;;;3.83;;
1879;SDS011;49285;49.002;8.390;2023-02-01T08:16:07;9.70;;;4.37;;
1879;SDS011;49285;49.002;8.390;2023-02-01T08:18:34;7.93;;;4.37;;
1879;SDS011;49285;49.002;8.390;2023-02-01T08:21:03;11.43;;;5.03;;
1879;SDS011;49285;49.002;8.390;2023-02-01T08:23:34;4.73;;;3.70;;
1879;SDS011;49285;49.002;8.390;2023-02-01T08:26:17;9.63;;;4.77;;
1879;SDS011;49285;49.002;8.390;2023-02-01T08:28:45;6.20;;;3.80;;
1879;SDS011;49285;49.002;8.390;2023-02-01T08:31:14;6.13;;;3.60;;
1879;SDS011;49285;49.002;8.390;2023-02-01T08:33:42;7.47;;;4.03;;
1879;SDS011;49285;49.002;8.390;2023-02-01T08:36:10;7.03;;;4.00;;
1879;SDS011;49285;49.002;8.390;2023-02-01T08:38:36;7.20;;;4.23;;
1879;SDS011;49285;49.002;8.390;2023-02-01T08:41:04;4.57;;;3.63;;
1879;SDS011;49285;49.002;8.390;2023-02-01T08:43:35;5.57;;;3.40;;
1879;SDS011;49285;49.002;8.390;2023-02-01T08:46:02;7.40;;;3.63;;
1879;SDS011;49285;49.002;8.390;2023-02-01T08:48:28;8.93;;;3.90;;
1879;SDS011;49285;49.002;8.390;2023-02-01T08:50:54;6.03;;;3.93;;
1879;SDS011;49285;49.002;8.390;2023-02-01T08:53:19;7.80;;;4.17;;
1879;SDS011;49285;49.002;8.390;2023-02-01T08:55:45;5.83;;;4.43;;
1879;SDS011;49285;49.002;8.390;2023-02-01T08:58:12;5.80;;;3.50;;
1879;SDS011;49285;49.002;8.390;2023-02-01T09:00:39;7.50;;;4.20;;
1879;SDS011;49285;49.002;8.390;2023-02-01T09:03:05;5.10;;;3.77;;
1879;SDS011;49285;49.002;8.390;2023-02-01T09:05:34;7.33;;;3.90;;
1879;SDS011;49285;49.002;8.390;2023-02-01T09:07:59;9.17;;;4.10;;
1879;SDS011;49285;49.002;8.390;2023-02-01T09:10:25;8.97;;;4.60;;
1879;SDS011;49285;49.002;8.390;2023-02-01T09:12:51;6.17;;;3.23;;
1879;SDS011;49285;49.002;8.390;2023-02-01T09:15:17;9.50;;;3.73;;
1879;SDS011;49285;49.002;8.390;2023-02-01T09:17:42;15.67;;;3.47;;
1879;SDS011;49285;49.002;8.390;2023-02-01T09:20:08;4.23;;;3.20;;
1879;SDS011;49285;49.002;8.390;2023-02-01T09:22:35;9.93;;;4.57;;
1879;SDS011;49285;49.002;8.390;2023-02-01T09:25:00;9.37;;;4.00;;
1879;SDS011;49285;49.002;8.390;2023-02-01T09:27:26;9.60;;;4.23;;
1879;SDS011;49285;49.002;8.390;2023-02-01T09:29:51;7.30;;;3.77;;
1879;SDS011;49285;49.002;8.390;2023-02-01T09:32:21;4.97;;;3.13;;
1879;SDS011;49285;49.002;8.390;2023-02-01T09:34:48;7.87;;;4.13;;
1879;SDS011;49285;49.002;8.390;2023-02-01T09:37:14;7.63;;;3.53;;
1879;SDS011;49285;49.002;8.390;2023-02-01T09:39:40;9.03;;;3.53;;
1879;SDS011;49285;49.002;8.390;2023-02-01T09:47:16;5.87;;;4.20;;
1879;SDS011;49285;49.002;8.390;2023-02-01T09:49:49;5.57;;;3.40;;
1879;SDS011;49285;49.002;8.390;2023-02-01T09:55:19;7.20;;;3.83;;
1879;SDS011;49285;49.002;8.390;2023-02-01T09:58:05;10.33;;;4.20;;
1879;SDS011;49285;49.002;8.390;2023-02-01T10:01:32;7.13;;;3.67;;
1879;SDS011;49285;49.002;8.390;2023-02-01T10:03:46;8.23;;;3.70;;
1879;SDS011;49285;49.002;8.390;2023-02-01T10:14:56;13.60;;;4.00;;
1879;SDS011;49285;49.002;8.390;2023-02-01T10:20:23;7.97;;;3.60;;
1879;SDS011;49285;49.002;8.390;2023-02-01T10:25:35;11.67;;;3.70;;
1879;SDS011;49285;49.002;8.390;2023-02-01T10:28:13;5.37;;;3.60;;
1879;SDS011;49285;49.002;8.390;2023-02-01T10:30:45;13.10;;;4.00;;
1879;SDS011;49285;49.002;8.390;2023-02-01T10:35:40;22.97;;;4.10;;
1879;SDS011;49285;49.002;8.390;2023-02-01T10:38:12;10.17;;;5.00;;
1879;SDS011;49285;49.002;8.390;2023-02-01T10:40:47;5.23;;;3.60;;
1879;SDS011;49285;49.002;8.390;2023-02-01T10:43:14;10.60;;;3.83;;
1879;SDS011;49285;49.002;8.390;2023-02-01T10:45:39;6.80;;;3.93;;
1879;SDS011;49285;49.002;8.390;2023-02-01T10:48:07;7.00;;;3.73;;
1879;SDS011;49285;49.002;8.390;2023-02-01T10:50:54;11.97;;;4.00;;
1879;SDS011;49285;49.002;8.390;2023-02-01T10:53:24;10.20;;;3.90;;
1879;SDS011;49285;49.002;8.390;2023-02-01T10:56:07;7.73;;;4.00;;
1879;SDS011;49285;49.002;8.390;2023-02-01T10:58:43;6.03;;;3.83;;
1879;SDS011;49285;49.002;8.390;2023-02-01T11:01:16;6.33;;;3.60;;
1879;SDS011;49285;49.002;8.390;2023-02-01T11:04:04;12.57;;;3.70;;
1879;SDS011;49285;49.002;8.390;2023-02-01T11:06:35;7.40;;;3.20;;
1879;SDS011;49285;49.002;8.390;2023-02-01T11:16:52;10.10;;;4.00;;
1879;SDS011;49285;49.002;8.390;2023-02-01T11:19:20;6.40;;;3.53;;
1879;SDS011;49285;49.002;8.390;2023-02-01T11:21:49;6.97;;;3.47;;
1879;SDS011;49285;49.002;8.390;2023-02-01T11:24:23;12.33;;;4.00;;
1879;SDS011;49285;49.002;8.390;2023-02-01T11:26:54;16.80;;;4.87;;
1879;SDS011;49285;49.002;8.390;2023-02-01T11:29:25;10.87;;;3.90;;
1879;SDS011;49285;49.002;8.390;2023-02-01T11:32:01;11.10;;;4.30;;
1879;SDS011;49285;49.002;8.390;2023-02-01T11:34:37;10.47;;;4.50;;
1879;SDS011;49285;49.002;8.390;2023-02-01T11:37:11;10.30;;;4.00;;
1879;SDS011;49285;49.002;8.390;2023-02-01T11:39:53;12.97;;;4.30;;
1879;SDS011;49285;49.002;8.390;2023-02-01T11:42:23;11.00;;;4.70;;
1879;SDS011;49285;49.002;8.390;2023-02-01T11:44:50;11.97;;;5.10;;
1879;SDS011;49285;49.002;8.390;2023-02-01T11:47:23;12.63;;;4.60;;
1879;SDS011;49285;49.002;8.390;2023-02-01T11:49:58;9.10;;;4.27;;
1879;SDS011;49285;49.002;8.390;2023-02-01T11:52:29;11.10;;;3.90;;
1879;SDS011;49285;49.002;8.390;2023-02-01T12:06:25;6.23;;;3.90;;
1879;SDS011;49285;49.002;8.390;2023-02-01T12:09:13;5.93;;;4.07;;
1879;SDS011;49285;49.002;8.390;2023-02-01T12:20:52;6.57;;;3.80;;
1879;SDS011;49285;49.002;8.390;2023-02-01T12:29:14;8.10;;;3.90;;
1879;SDS011;49285;49.002;8.390;2023-02-01T12:31:57;22.10;;;4.63;;
1879;SDS011;49285;49.002;8.390;2023-02-01T12:34:28;19.23;;;4.77;;
1879;SDS011;49285;49.002;8.390;2023-02-01T12:43:11;14.30;;;4.60;;
1879;SDS011;49285;49.002;8.390;2023-02-01T12:45:49;8.40;;;3.50;;
1879;SDS011;49285;49.002;8.390;2023-02-01T12:48:25;12.20;;;4.07;;
1879;SDS011;49285;49.002;8.390;2023-02-01T12:51:07;10.07;;;4.47;;
1879;SDS011;49285;49.002;8.390;2023-02-01T12:53:45;17.00;;;4.97;;
1879;SDS011;49285;49.002;8.390;2023-02-01T12:56:44;12.80;;;4.60;;
1879;SDS011;49285;49.002;8.390;2023-02-01T13:01:57;14.13;;;4.20;;
1879;SDS011;49285;49.002;8.390;2023-02-01T13:09:53;8.37;;;4.10;;
1879;SDS011;49285;49.002;8.390;2023-02-01T13:12:26;11.00;;;5.60;;
1879;SDS011;49285;49.002;8.390;2023-02-01T13:15:02;11.43;;;5.77;;
1879;SDS011;49285;49.002;8.390;2023-02-01T13:17:29;11.70;;;5.70;;
1879;SDS011;49285;49.002;8.390;2023-02-01T13:22:33;14.57;;;5.60;;
1879;SDS011;49285;49.002;8.390;2023-02-01T13:27:37;19.23;;;4.50;;
1879;SDS011;49285;49.002;8.390;2023-02-01T13:30:20;12.83;;;4.20;;
1879;SDS011;49285;49.002;8.390;2023-02-01T13:41:30;10.73;;;4.30;;
1879;SDS011;49285;49.002;8.390;2023-02-01T13:44:18;9.27;;;3.60;;
1879;SDS011;49285;49.002;8.390;2023-02-01T13:47:09;11.40;;;4.30;;
1879;SDS011;49285;49.002;8.390;2023-02-01T13:49:49;10.27;;;3.70;;
1879;SDS011;49285;49.002;8.390;2023-02-01T13:52:51;9.13;;;3.80;;
1879;SDS011;49285;49.002;8.390;2023-02-01T13:57:45;17.23;;;5.10;;
1879;SDS011;49285;49.002;8.390;2023-02-01T14:00:23;10.83;;;3.63;;
1879;SDS011;49285;49.002;8.390;2023-02-01T14:03:11;10.40;;;4.60;;
1879;SDS011;49285;49.002;8.390;2023-02-01T14:10:47;14.23;;;3.80;;
1879;SDS011;49285;49.002;8.390;2023-02-01T14:21:17;9.37;;;3.40;;
1879;SDS011;49285;49.002;8.390;2023-02-01T14:24:02;9.73;;;3.73;;
1879;SDS011;49285;49.002;8.390;2023-02-01T14:29:30;10.70;;;4.30;;
1879;SDS011;49285;49.002;8.390;2023-02-01T14:37:32;17.10;;;4.50;;
1879;SDS011;49285;49.002;8.390;2023-02-01T14:42:37;9.33;;;3.63;;
1879;SDS011;49285;49.002;8.390;2023-02-01T15:00:56;9.83;;;3.60;;
1879;SDS011;49285;49.002;8.390;2023-02-01T15:08:49;9.13;;;3.40;;
1879;SDS011;49285;49.002;8.390;2023-02-01T15:11:22;11.20;;;3.93;;
1879;SDS011;49285;49.002;8.390;2023-02-01T15:13:49;12.90;;;4.40;;
1879;SDS011;49285;49.002;8.390;2023-02-01T15:16:18;8.23;;;3.00;;
1879;SDS011;49285;49.002;8.390;2023-02-01T15:18:44;8.83;;;3.43;;
1879;SDS011;49285;49.002;8.390;2023-02-01T15:21:27;21.33;;;3.97;;
1879;SDS011;49285;49.002;8.390;2023-02-01T15:24:09;10.60;;;3.60;;
1879;SDS011;49285;49.002;8.390;2023-02-01T15:26:39;15.77;;;4.20;;
1879;SDS011;49285;49.002;8.390;2023-02-01T15:29:05;11.50;;;4.30;;
1879;SDS011;49285;49.002;8.390;2023-02-01T15:31:38;14.90;;;3.57;;
1879;SDS011;49285;49.002;8.390;2023-02-01T15:34:12;11.30;;;3.93;;
1879;SDS011;49285;49.002;8.390;2023-02-01T15:36:38;12.40;;;4.73;;
1879;SDS011;49285;49.002;8.390;2023-02-01T15:39:18;9.20;;;3.47;;
1879;SDS011;49285;49.002;8.390;2023-02-01T15:44:30;15.37;;;3.40;;
1879;SDS011;49285;49.002;8.390;2023-02-01T15:47:10;9.80;;;4.13;;
1879;SDS011;49285;49.002;8.390;2023-02-01T15:49:41;23.67;;;3.93;;
1879;SDS011;49285;49.002;8.390;2023-02-01T15:52:20;11.03;;;3.40;;
1879;SDS011;49285;49.002;8.390;2023-02-01T15:54:47;12.30;;;4.00;;
1879;SDS011;49285;49.002;8.390;2023-02-01T15:57:31;15.43;;;4.70;;
1879;SDS011;49285;49.002;8.390;2023-02-01T16:00:02;13.07;;;4.20;;
1879;SDS011;49285;49.002;8.390;2023-02-01T16:02:37;12.97;;;4.07;;
1879;SDS011;49285;49.002;8.390;2023-02-01T16:10:29;10.30;;;4.33;;
1879;SDS011;49285;49.002;8.390;2023-02-01T16:12:56;11.37;;;3.77;;
1879;SDS011;49285;49.002;8.390;2023-02-01T16:15:26;10.33;;;4.33;;
1879;SDS011;49285;49.002;8.390;2023-02-01T16:17:54;9.10;;;3.90;;
1879;SDS011;49285;49.002;8.390;2023-02-01T16:20:20;16.03;;;5.40;;
1879;SDS011;49285;49.002;8.390;2023-02-01T16:22:45;15.30;;;4.07;;
1879;SDS011;49285;49.002;8.390;2023-02-01T16:25:11;11.27;;;3.70;;
1879;SDS011;49285;49.002;8.390;2023-02-01T16:27:36;6.23;;;2.70;;
1879;SDS011;49285;49.002;8.390;2023-02-01T16:30:02;19.53;;;4.23;;
1879;SDS011;49285;49.002;8.390;2023-02-01T16:32:28;17.43;;;4.20;;
1879;SDS011;49285;49.002;8.390;2023-02-01T16:34:55;13.93;;;3.30;;
1879;SDS011;49285;49.002;8.390;2023-02-01T16:37:22;12.73;;;3.70;;
1879;SDS011;49285;49.002;8.390;2023-02-01T16:39:49;8.00;;;3.57;;
1879;SDS011;49285;49.002;8.390;2023-02-01T16:42:15;10.63;;;3.33;;
1879;SDS011;49285;49.002;8.390;2023-02-01T16:44:42;7.73;;;3.40;;
1879;SDS011;49285;49.002;8.390;2023-02-01T16:47:14;11.57;;;3.40;;
1879;SDS011;49285;49.002;8.390;2023-02-01T16:49:42;7.83;;;3.30;;
1879;SDS011;49285;49.002;8.390;2023-02-01T16:52:11;18.73;;;3.70;;
1879;SDS011;49285;49.002;8.390;2023-02-01T16:54:48;9.87;;;3.57;;
1879;SDS011;49285;49.002;8.390;2023-02-01T16:57:15;13.93;;;3.27;;
1879;SDS011;49285;49.002;8.390;2023-02-01T16:59:41;9.97;;;4.10;;
1879;SDS011;49285;49.002;8.390;2023-02-01T17:02:10;14.80;;;4.00;;
1879;SDS011;49285;49.002;8.390;2023-02-01T17:04:40;14.57;;;4.23;;
1879;SDS011;49285;49.002;8.390;2023-02-01T17:07:06;9.87;;;4.47;;
1879;SDS011;49285;49.002;8.390;2023-02-01T17:09:36;10.60;;;4.40;;
1879;SDS011;49285;49.002;8.390;2023-02-01T17:12:03;9.57;;;3.70;;
1879;SDS011;49285;49.002;8.390;2023-02-01T17:14:30;5.47;;;2.90;;
1879;SDS011;49285;49.002;8.390;2023-02-01T17:16:57;12.87;;;3.70;;
1879;SDS011;49285;49.002;8.390;2023-02-01T17:19:23;15.13;;;3.10;;
1879;SDS011;49285;49.002;8.390;2023-02-01T17:21:50;12.27;;;3.33;;
1879;SDS011;49285;49.002;8.390;2023-02-01T17:24:20;9.37;;;3.83;;
1879;SDS011;49285;49.002;8.390;2023-02-01T17:26:54;8.60;;;4.63;;
1879;SDS011;49285;49.002;8.390;2023-02-01T17:29:20;11.70;;;4.50;;
1879;SDS011;49285;49.002;8.390;2023-02-01T17:31:49;10.87;;;3.83;;
1879;SDS011;49285;49.002;8.390;2023-02-01T17:34:17;6.77;;;2.83;;
1879;SDS011;49285;49.002;8.390;2023-02-01T17:36:43;8.60;;;4.07;;
1879;SDS011;49285;49.002;8.390;2023-02-01T17:39:10;11.90;;;3.17;;
1879;SDS011;49285;49.002;8.390;2023-02-01T17:42:00;9.03;;;2.90;;
1879;SDS011;49285;49.002;8.390;2023-02-01T17:44:26;9.10;;;3.33;;
1879;SDS011;49285;49.002;8.390;2023-02-01T17:46:52;8.87;;;3.57;;
1879;SDS011;49285;49.002;8.390;2023-02-01T17:49:17;6.53;;;3.63;;
1879;SDS011;49285;49.002;8.390;2023-02-01T17:51:43;15.07;;;4.13;;
1879;SDS011;49285;49.002;8.390;2023-02-01T17:54:12;10.60;;;3.83;;
1879;SDS011;49285;49.002;8.390;2023-02-01T17:56:38;8.10;;;4.00;;
1879;SDS011;49285;49.002;8.390;2023-02-01T17:59:03;9.00;;;4.27;;
1879;SDS011;49285;49.002;8.390;2023-02-01T18:01:29;12.97;;;3.67;;
1879;SDS011;49285;49.002;8.390;2023-02-01T18:03:55;9.20;;;3.70;;
1879;SDS011;49285;49.002;8.390;2023-02-01T18:06:21;16.87;;;3.87;;